Pagrindinis puslapis
METAR-TAF:

METAR-TAF

Oro uostai :

Kordoba, Argentina

platuma: 31-19S, ilguma: 064-13W, Aukštis: 484 m

Dabartinis oras

Ataskaita buvo paskelbta 35 minutes, ne 02:00 UTC
Vėjas 7 kt iš Šiaurės
Temperatūra 13°C
Drėgmė 72%
Slėgis 1024 hPa
Matomumas 10 km arba daugiau
nėra debesų žemiau 1500 m ir nėra kamuolinių lietaus debesų

METAR: SACO 090200Z 36007KT CAVOK 13/08 Q1024

Laikas: 23:35 (02:35 UTC)

Prognozė

Ataskaita buvo paskelbta 3 valandos ir 35 minutes, ne 23:00 UTC
Prognozė galioja nuo 09 metu 00 UTC su 09 metu 24 UTC
Vėjas 5 kt iš Šiaurės Vakarų
Matomumas 10 km arba daugiau
Išsisklaidę debesys ne aukštis 2500 ft
Su prošvaistėmis ne aukštis 6000 ft
Tapsmas
nuo 09 metu 14 UTC su 09 metu 17 UTC
Vėjas 10 kt iš Šiaurės Rytų
Matomumas 10 km arba daugiau
Mažai debesys ne aukštis 3000 ft

TAF: SACO 082300Z 0900/0924 32005KT 9999 SCT025 BKN060 TX24/0918Z TN09/0910Z BECMG 0914/0917 05010KT 9999 FEW030

Orai ataskaitas ir orų prognozės (METAR, TAF).

turimą stotys yra geltonos ir raudonos taškus žemėlapyje.

Perkelti pele per norėdami pamatyti stoties vardą.

Tada spustelėkite, norėdami matyti oro stebėjimo ir prognozės.

Norėdami pakeisti žemėlapį: spustelėkite ant žalios mygtukų su juodo kryžiaus žemyn,; žalią mygtuką su brūkšneliu, jei norite nutolinti; arba žalių rodyklių gretimoms žemėlapius.


METAR-TAF: